TNCE METAR and TAF | Updated Today

TNCE METAR

F. D. Roosevelt Airport

Observation time: 17 min. ago

TNCE 060855Z AUTO 08015KT 040V110 //// // ///////// 25/22 Q1017 RE//

Need help? Read our tutorial on how to read METARs or read the parsed version below.

F. D. Roosevelt Airport (TNCE) METAR

  • Weather conditions on Mon, 06 Dec 2021 08:55:00 +0000 (17 min. ago):
  • Present conditions: Dry
  • Clouds: Clear skies
  • Visibility:
  • Wind: 80 degrees at 15 knots
  • Temperature: 25 celsius
  • Dew point: 22 celsius
  • Pressure: 1017 millibars
  • Remarks: None


Useful to know...